Time;durP1;ratioP1;P1;durP2;ratioP2;P2;SDS_P1;SDS_P2;PMS_P1;PMS_P2;Temp;Humidity;BMP_temperature;BMP_pressure;BME280_temperature;BME280_humidity;BME280_pressure;Samples;Min_cycle;Max_cycle;Signal;HPM_P1;HPM_P2
2022/08/03 00:01:55;;;;;;;14.50;3.72;;;18.70;99.90;;;;;;5039840;28;20046;-69
2022/08/03 00:04:21;;;;;;;9.10;3.47;;;18.70;99.90;;;;;;5047608;28;20183;-69
2022/08/03 00:06:46;;;;;;;5.82;3.00;;;18.60;99.90;;;;;;5036617;28;20045;-69
2022/08/03 00:09:12;;;;;;;8.40;3.47;;;18.60;99.90;;;;;;5050770;28;20136;-69
2022/08/03 00:11:38;;;;;;;10.10;3.20;;;18.50;99.90;;;;;;5039590;28;20488;-69
2022/08/03 00:14:05;;;;;;;12.10;3.40;;;18.50;99.90;;;;;;5037161;28;20049;-69
2022/08/03 00:16:30;;;;;;;9.55;3.47;;;18.50;99.90;;;;;;5029603;28;20049;-70
2022/08/03 00:18:56;;;;;;;10.55;3.47;;;18.50;99.90;;;;;;5028119;28;20440;-69
2022/08/03 00:21:22;;;;;;;7.43;3.25;;;18.40;99.90;;;;;;5030452;28;20060;-69
2022/08/03 00:23:48;;;;;;;6.43;3.20;;;18.40;99.90;;;;;;5038707;28;20045;-69
2022/08/03 00:26:13;;;;;;;9.68;3.30;;;18.40;99.90;;;;;;5038481;28;20074;-69
2022/08/03 00:28:39;;;;;;;7.72;3.15;;;18.40;99.90;;;;;;5023997;28;20135;-69
2022/08/03 00:31:06;;;;;;;12.15;3.80;;;18.30;99.90;;;;;;5029935;28;20060;-69
2022/08/03 00:33:31;;;;;;;6.00;3.35;;;18.40;99.90;;;;;;5038135;28;20132;-69
2022/08/03 00:35:57;;;;;;;7.13;3.45;;;18.40;99.90;;;;;;5051413;28;20120;-69
2022/08/03 00:38:23;;;;;;;10.18;3.70;;;18.40;99.90;;;;;;5028381;28;20370;-69
2022/08/03 00:40:48;;;;;;;8.27;3.47;;;18.40;99.90;;;;;;5030349;28;20053;-70
2022/08/03 00:43:14;;;;;;;6.25;3.15;;;18.40;99.90;;;;;;5043036;28;20041;-70
2022/08/03 00:45:42;;;;;;;9.10;3.33;;;18.40;99.90;;;;;;5023910;28;20049;-69
2022/08/03 00:48:10;;;;;;;7.13;2.78;;;18.40;99.90;;;;;;5028146;28;20049;-70
2022/08/03 00:50:40;;;;;;;7.68;3.33;;;18.50;99.90;;;;;;5042351;28;20056;-69
2022/08/03 00:53:06;;;;;;;7.43;2.83;;;18.50;99.90;;;;;;5050497;28;20069;-70
2022/08/03 00:55:34;;;;;;;10.40;3.30;;;18.50;99.90;;;;;;5050651;28;20474;-69
2022/08/03 00:58:03;;;;;;;12.40;3.00;;;18.50;99.90;;;;;;5020012;28;20124;-70
2022/08/03 01:00:29;;;;;;;7.53;2.90;;;18.40;99.90;;;;;;5043284;28;20523;-70
2022/08/03 01:02:55;;;;;;;8.38;2.42;;;18.40;99.90;;;;;;5036786;28;20049;-70
2022/08/03 01:05:21;;;;;;;8.10;2.75;;;18.50;99.90;;;;;;5035663;28;20049;-69
2022/08/03 01:07:57;;;;;;;7.15;2.60;;;18.40;99.90;;;;;;5014820;28;20116;-70
2022/08/03 01:10:50;;;;;;;8.00;2.78;;;18.40;99.90;;;;;;5030684;28;20489;-71
2022/08/03 01:13:43;;;;;;;9.18;2.90;;;18.40;99.90;;;;;;5028581;28;20053;-70
2022/08/03 01:16:16;;;;;;;8.77;2.97;;;18.30;99.90;;;;;;5032585;28;20042;-71
2022/08/03 01:19:02;;;;;;;6.07;3.35;;;18.20;99.90;;;;;;5025226;28;20183;-70
2022/08/03 01:21:52;;;;;;;7.53;3.28;;;18.20;99.90;;;;;;5029298;28;20083;-70
2022/08/03 01:24:31;;;;;;;8.13;3.42;;;18.20;99.90;;;;;;5033369;28;20292;-70
2022/08/03 01:27:11;;;;;;;9.30;3.55;;;18.20;99.90;;;;;;5013532;28;20045;-70
2022/08/03 01:29:59;;;;;;;10.60;3.25;;;18.10;99.90;;;;;;5042983;28;20045;-70
2022/08/03 01:32:34;;;;;;;8.50;3.20;;;18.10;99.90;;;;;;5028759;28;20045;-70
2022/08/03 01:35:06;;;;;;;10.95;3.40;;;18.00;99.90;;;;;;5034449;28;20052;-70
2022/08/03 01:37:48;;;;;;;11.55;2.97;;;18.10;99.90;;;;;;5034617;28;20048;-69
2022/08/03 01:40:16;;;;;;;8.23;2.90;;;18.10;99.90;;;;;;5048946;28;20044;-69
2022/08/03 01:42:44;;;;;;;12.90;3.20;;;18.00;99.90;;;;;;5045111;28;20550;-70
2022/08/03 01:45:12;;;;;;;9.23;2.75;;;18.00;99.90;;;;;;5037548;28;20463;-70
2022/08/03 01:47:39;;;;;;;11.00;3.22;;;18.00;99.90;;;;;;5033770;28;20075;-69
2022/08/03 01:50:07;;;;;;;8.30;3.10;;;18.00;99.90;;;;;;5049952;28;20048;-70
2022/08/03 01:52:34;;;;;;;10.48;3.10;;;17.90;99.90;;;;;;5045737;28;20040;-70
2022/08/03 01:55:02;;;;;;;11.73;2.97;;;18.00;99.90;;;;;;5039127;28;20057;-70
2022/08/03 01:57:29;;;;;;;10.32;2.40;;;18.00;99.90;;;;;;5033795;28;20053;-70
2022/08/03 01:59:58;;;;;;;5.85;2.40;;;18.00;99.90;;;;;;5022534;28;20123;-70
2022/08/03 02:02:25;;;;;;;5.32;1.98;;;17.90;99.90;;;;;;5042932;28;20389;-69
2022/08/03 02:04:55;;;;;;;8.63;2.70;;;17.90;99.90;;;;;;5040331;28;20048;-70
2022/08/03 02:07:22;;;;;;;9.40;2.80;;;17.90;99.90;;;;;;5033689;28;20041;-69
2022/08/03 02:09:51;;;;;;;8.05;2.50;;;17.80;99.90;;;;;;5050004;28;20095;-69
2022/08/03 02:12:18;;;;;;;7.65;2.75;;;17.80;99.90;;;;;;5046997;28;20393;-70
2022/08/03 02:14:46;;;;;;;8.65;2.30;;;17.90;99.90;;;;;;5045243;28;20487;-70
2022/08/03 02:17:13;;;;;;;8.25;2.72;;;17.90;99.90;;;;;;5014726;28;20057;-69
2022/08/03 02:19:41;;;;;;;7.68;2.60;;;18.00;99.90;;;;;;5029856;28;20053;-70
2022/08/03 02:22:09;;;;;;;9.50;2.92;;;17.90;99.90;;;;;;5030058;28;20120;-69
2022/08/03 02:24:35;;;;;;;7.65;2.50;;;17.90;99.90;;;;;;5028793;28;20055;-70
2022/08/03 02:27:05;;;;;;;8.40;2.72;;;17.90;99.90;;;;;;5013383;28;20479;-70
2022/08/03 02:29:33;;;;;;;9.50;2.28;;;17.80;99.90;;;;;;5045928;28;20055;-70
2022/08/03 02:32:03;;;;;;;9.45;2.65;;;17.80;99.90;;;;;;5053999;28;20366;-70
2022/08/03 02:34:32;;;;;;;7.82;2.20;;;17.80;99.90;;;;;;5052250;28;20210;-70
2022/08/03 02:37:02;;;;;;;5.65;2.60;;;17.70;99.90;;;;;;5025708;28;20041;-70
2022/08/03 02:39:32;;;;;;;6.55;2.65;;;17.80;99.90;;;;;;5037364;28;20061;-70
2022/08/03 02:42:01;;;;;;;7.13;2.55;;;17.70;99.90;;;;;;5033230;28;20125;-69
2022/08/03 02:44:31;;;;;;;8.82;2.38;;;17.70;99.90;;;;;;5033321;28;20052;-70
2022/08/03 02:47:02;;;;;;;7.68;2.70;;;17.70;99.90;;;;;;5037692;28;20527;-70
2022/08/03 02:49:28;;;;;;;10.68;2.72;;;17.70;99.90;;;;;;5047876;28;20038;-70
2022/08/03 02:51:55;;;;;;;7.78;2.20;;;17.70;99.90;;;;;;5043204;28;20114;-70
2022/08/03 02:54:25;;;;;;;9.23;2.63;;;17.60;99.90;;;;;;5052397;28;20043;-70
2022/08/03 02:56:52;;;;;;;9.25;2.90;;;17.70;99.90;;;;;;5037678;28;20409;-70
2022/08/03 02:59:19;;;;;;;12.73;2.80;;;17.60;99.90;;;;;;5034489;28;20048;-70
2022/08/03 03:01:46;;;;;;;8.68;2.70;;;17.60;99.90;;;;;;5033042;28;20512;-70
2022/08/03 03:04:12;;;;;;;8.95;2.58;;;17.70;99.90;;;;;;5030947;28;20049;-70
2022/08/03 03:06:39;;;;;;;10.68;2.60;;;17.70;99.90;;;;;;5019401;28;20465;-71
2022/08/03 03:09:06;;;;;;;8.07;2.50;;;17.70;99.90;;;;;;5030559;28;20049;-70
2022/08/03 03:11:34;;;;;;;9.68;2.65;;;17.60;99.90;;;;;;5037289;28;20056;-70
2022/08/03 03:14:01;;;;;;;9.65;2.80;;;17.70;99.90;;;;;;5050694;28;20052;-70
2022/08/03 03:16:29;;;;;;;11.43;2.53;;;17.70;99.90;;;;;;5033415;28;20049;-70
2022/08/03 03:18:56;;;;;;;13.45;2.58;;;17.70;99.90;;;;;;5027578;28;20038;-69
2022/08/03 03:21:22;;;;;;;10.95;2.67;;;17.70;99.90;;;;;;5032991;28;20056;-70
2022/08/03 03:23:49;;;;;;;9.05;2.63;;;17.70;99.90;;;;;;5032397;28;20128;-70
2022/08/03 03:26:15;;;;;;;9.15;2.72;;;17.60;99.90;;;;;;5022708;28;20160;-71
2022/08/03 03:28:41;;;;;;;5.60;1.98;;;17.60;99.90;;;;;;5045740;28;20073;-70
2022/08/03 03:31:08;;;;;;;6.80;2.70;;;17.60;99.90;;;;;;5050819;28;20504;-70
2022/08/03 03:33:35;;;;;;;12.55;2.90;;;17.60;99.90;;;;;;5050897;28;20495;-70
2022/08/03 03:36:01;;;;;;;9.70;2.47;;;17.60;99.90;;;;;;5020644;28;20113;-70
2022/08/03 03:38:27;;;;;;;10.70;2.85;;;17.60;99.90;;;;;;5024823;28;20045;-70
2022/08/03 03:40:54;;;;;;;7.72;2.47;;;17.60;99.90;;;;;;5038155;28;20048;-70
2022/08/03 03:43:22;;;;;;;8.73;3.05;;;17.60;99.90;;;;;;5038682;28;20478;-70
2022/08/03 03:45:48;;;;;;;10.43;2.75;;;17.60;99.90;;;;;;5052282;28;20072;-70
2022/08/03 03:48:15;;;;;;;11.98;3.10;;;17.50;99.90;;;;;;5014561;28;20053;-70
2022/08/03 03:50:42;;;;;;;11.75;3.13;;;17.50;99.90;;;;;;5045581;28;20047;-69
2022/08/03 03:53:09;;;;;;;10.40;2.50;;;17.50;99.90;;;;;;5051680;28;20044;-70
2022/08/03 03:55:39;;;;;;;12.05;3.53;;;17.50;99.90;;;;;;5051931;28;20064;-70
2022/08/03 03:58:06;;;;;;;11.30;3.13;;;17.50;99.90;;;;;;5036138;28;20045;-70
2022/08/03 04:00:32;;;;;;;8.93;3.13;;;17.50;99.90;;;;;;5051622;28;20040;-70
2022/08/03 04:02:58;;;;;;;8.18;2.97;;;17.50;99.90;;;;;;5042079;28;20128;-70
2022/08/03 04:11:21;;;;;;;8.80;2.92;;;17.50;99.90;;;;;;5037590;28;20063;-70
2022/08/03 04:14:05;;;;;;;10.68;3.20;;;17.50;99.90;;;;;;5046899;28;20045;-70
2022/08/03 04:16:37;;;;;;;9.68;3.25;;;17.50;99.90;;;;;;5027350;28;20099;-71
2022/08/03 04:19:50;;;;;;;12.05;3.47;;;17.50;99.90;;;;;;5044108;28;20036;-70
2022/08/03 04:22:18;;;;;;;8.52;3.28;;;17.50;99.90;;;;;;4994229;28;20533;-71
2022/08/03 04:24:55;;;;;;;10.13;3.25;;;17.50;99.90;;;;;;5027797;28;20062;-70
2022/08/03 04:27:25;;;;;;;7.90;3.10;;;17.50;99.90;;;;;;5034067;28;20048;-69
2022/08/03 04:29:53;;;;;;;11.60;3.15;;;17.50;99.90;;;;;;5051423;28;20088;-69
2022/08/03 04:32:22;;;;;;;10.15;3.60;;;17.50;99.90;;;;;;5050562;28;20043;-70
2022/08/03 04:34:48;;;;;;;10.00;3.40;;;17.50;99.90;;;;;;5050313;28;20449;-70
2022/08/03 04:37:36;;;;;;;9.40;3.33;;;17.60;99.90;;;;;;5023110;28;20073;-70
2022/08/03 04:40:07;;;;;;;14.48;3.72;;;17.60;99.90;;;;;;5030671;28;20057;-70
2022/08/03 04:42:34;;;;;;;12.40;3.60;;;17.50;99.90;;;;;;5033401;28;20045;-71
2022/08/03 04:45:02;;;;;;;9.57;3.05;;;17.60;99.90;;;;;;5051250;28;20057;-70
2022/08/03 04:47:31;;;;;;;8.57;3.55;;;17.60;99.90;;;;;;5034630;28;20036;-69
2022/08/03 04:49:57;;;;;;;8.70;3.40;;;17.60;99.90;;;;;;5050669;28;20400;-69
2022/08/03 04:52:23;;;;;;;13.40;3.70;;;17.60;99.90;;;;;;5049935;28;20110;-70
2022/08/03 04:54:48;;;;;;;9.57;3.60;;;17.60;99.90;;;;;;5051084;28;20496;-71
2022/08/03 04:57:14;;;;;;;11.10;4.20;;;17.60;99.90;;;;;;5032774;28;20055;-70
2022/08/03 04:59:40;;;;;;;14.10;4.32;;;17.70;99.90;;;;;;5029188;28;20080;-71
2022/08/03 05:02:05;;;;;;;12.30;3.72;;;17.70;99.90;;;;;;5029350;28;20053;-69
2022/08/03 05:04:31;;;;;;;11.60;3.50;;;17.70;99.90;;;;;;5051222;28;20508;-71
2022/08/03 05:06:57;;;;;;;8.23;3.20;;;17.80;99.90;;;;;;5035347;28;20072;-71
2022/08/03 05:09:22;;;;;;;15.35;3.72;;;17.80;99.90;;;;;;5049871;28;20049;-70
2022/08/03 05:11:48;;;;;;;10.65;3.38;;;17.80;99.90;;;;;;5036992;28;20037;-71
2022/08/03 05:14:14;;;;;;;7.50;3.45;;;17.80;99.90;;;;;;5050171;28;20055;-70
2022/08/03 05:16:39;;;;;;;10.32;3.53;;;17.90;99.90;;;;;;5026954;28;20041;-70
2022/08/03 05:19:05;;;;;;;10.52;3.90;;;18.00;99.90;;;;;;5028353;28;20508;-70
2022/08/03 05:21:31;;;;;;;10.18;3.53;;;18.00;99.90;;;;;;5042460;28;20049;-70
2022/08/03 05:23:56;;;;;;;12.38;3.33;;;18.10;99.90;;;;;;5039734;28;20046;-71
2022/08/03 05:26:22;;;;;;;13.82;3.67;;;18.10;99.90;;;;;;5017952;28;20057;-71
2022/08/03 05:28:48;;;;;;;15.40;3.65;;;18.20;99.90;;;;;;5045287;28;20045;-70
2022/08/03 05:31:13;;;;;;;9.57;3.28;;;18.30;99.90;;;;;;5050109;28;20106;-70
2022/08/03 05:33:39;;;;;;;8.70;3.15;;;18.40;99.90;;;;;;5048152;28;20105;-71
2022/08/03 05:36:05;;;;;;;19.25;3.60;;;18.50;99.90;;;;;;5050066;28;20061;-72
2022/08/03 05:38:31;;;;;;;12.80;3.30;;;18.60;99.90;;;;;;5019853;28;20045;-71
2022/08/03 05:40:57;;;;;;;11.65;3.63;;;18.60;99.90;;;;;;5047191;28;20052;-70
2022/08/03 05:43:23;;;;;;;11.77;3.08;;;18.70;99.90;;;;;;5053088;28;20268;-71
2022/08/03 05:45:49;;;;;;;15.00;3.50;;;18.80;99.90;;;;;;5050429;28;20045;-72
2022/08/03 05:48:14;;;;;;;15.80;3.42;;;18.90;99.90;;;;;;5025652;28;20053;-71
2022/08/03 05:50:40;;;;;;;10.82;3.00;;;19.00;99.90;;;;;;5038754;28;20034;-71
2022/08/03 05:53:06;;;;;;;10.73;3.15;;;19.10;99.90;;;;;;5027989;28;20099;-71
2022/08/03 05:55:32;;;;;;;11.52;3.13;;;19.20;99.90;;;;;;5043073;28;20141;-71
2022/08/03 05:57:57;;;;;;;8.77;2.97;;;19.30;99.90;;;;;;5033966;28;20480;-72
2022/08/03 06:00:23;;;;;;;12.32;3.13;;;19.30;99.90;;;;;;5048791;28;20563;-71
2022/08/03 06:02:49;;;;;;;12.30;3.90;;;19.40;99.90;;;;;;5041329;28;20370;-72
2022/08/03 06:05:15;;;;;;;9.32;2.88;;;19.40;99.90;;;;;;5042465;28;20110;-72
2022/08/03 06:07:40;;;;;;;9.85;2.72;;;19.40;99.90;;;;;;5033714;28;20036;-71
2022/08/03 06:10:07;;;;;;;12.48;3.20;;;19.60;99.90;;;;;;5048555;28;20075;-71
2022/08/03 06:12:34;;;;;;;12.00;3.55;;;19.60;99.90;;;;;;5040067;28;20069;-71
2022/08/03 06:15:02;;;;;;;13.88;3.38;;;19.60;99.90;;;;;;5040030;28;20481;-74
2022/08/03 06:17:28;;;;;;;10.63;3.00;;;19.70;99.90;;;;;;5013713;28;20052;-71
2022/08/03 06:19:53;;;;;;;11.95;3.25;;;19.70;99.90;;;;;;5042284;28;20400;-71
2022/08/03 06:22:19;;;;;;;14.18;3.22;;;19.70;99.90;;;;;;5034748;28;20480;-71
2022/08/03 06:24:45;;;;;;;12.70;3.20;;;19.70;99.90;;;;;;5035902;28;20132;-72
2022/08/03 06:27:11;;;;;;;12.25;2.88;;;19.80;99.90;;;;;;5036293;28;20511;-71
2022/08/03 06:29:37;;;;;;;13.88;3.80;;;19.90;99.90;;;;;;5049425;28;20080;-71
2022/08/03 06:32:02;;;;;;;10.60;3.40;;;19.90;99.90;;;;;;5049305;28;20168;-66
2022/08/03 06:34:28;;;;;;;14.43;3.25;;;19.90;99.90;;;;;;5034583;28;20512;-73
2022/08/03 06:36:54;;;;;;;15.20;3.58;;;20.00;99.90;;;;;;5034279;28;20402;-71
2022/08/03 06:39:21;;;;;;;11.00;3.47;;;20.00;99.90;;;;;;5049003;28;20045;-72
2022/08/03 06:41:46;;;;;;;13.93;3.33;;;20.00;99.90;;;;;;5049476;28;20152;-73
2022/08/03 06:44:12;;;;;;;12.77;3.60;;;20.10;99.90;;;;;;5040380;28;20654;-72
2022/08/03 06:46:38;;;;;;;10.73;3.55;;;20.10;99.90;;;;;;5013779;28;20054;-72
2022/08/03 06:49:05;;;;;;;9.82;3.25;;;20.20;99.90;;;;;;5034936;28;20125;-70
2022/08/03 06:51:31;;;;;;;14.20;3.28;;;20.20;99.90;;;;;;5034771;28;20060;-73
2022/08/03 06:53:56;;;;;;;15.68;3.63;;;20.20;99.90;;;;;;5047287;28;20044;-71
2022/08/03 06:56:22;;;;;;;14.50;3.65;;;20.30;99.90;;;;;;5017373;28;20508;-74
2022/08/03 06:58:48;;;;;;;14.75;3.75;;;20.30;99.90;;;;;;5024195;28;20044;-71
2022/08/03 07:01:14;;;;;;;13.20;3.55;;;20.30;99.90;;;;;;5036899;28;20041;-70
2022/08/03 07:03:39;;;;;;;19.08;4.13;;;20.30;99.90;;;;;;5033960;28;20045;-72
2022/08/03 07:06:06;;;;;;;11.30;3.72;;;20.40;99.90;;;;;;5041761;28;20164;-74
2022/08/03 07:08:31;;;;;;;13.00;3.55;;;20.70;99.90;;;;;;5014779;28;20660;-73
2022/08/03 07:10:57;;;;;;;13.23;3.92;;;20.50;99.90;;;;;;5030117;28;20049;-70
2022/08/03 07:13:23;;;;;;;19.63;3.83;;;20.50;99.90;;;;;;5034982;28;20045;-70
2022/08/03 07:15:48;;;;;;;13.82;3.78;;;20.60;99.90;;;;;;5041224;28;20045;-71
2022/08/03 07:18:14;;;;;;;12.10;3.60;;;20.60;99.90;;;;;;5016647;28;20077;-70
2022/08/03 07:20:40;;;;;;;16.88;3.83;;;20.60;99.90;;;;;;5040927;28;20142;-72
2022/08/03 07:23:05;;;;;;;14.02;3.38;;;20.70;99.90;;;;;;5047744;28;20388;-71
2022/08/03 07:25:32;;;;;;;10.07;3.40;;;20.80;99.90;;;;;;5041095;28;20146;-72
2022/08/03 07:27:57;;;;;;;14.43;3.33;;;20.80;99.90;;;;;;5024601;28;20040;-74
2022/08/03 07:30:23;;;;;;;12.60;3.78;;;20.80;99.90;;;;;;5031712;28;20050;-75
2022/08/03 07:32:48;;;;;;;10.50;3.78;;;20.80;99.90;;;;;;5045651;28;20037;-70
2022/08/03 07:35:14;;;;;;;13.38;3.90;;;20.90;99.90;;;;;;5051165;28;20049;-70
2022/08/03 07:37:40;;;;;;;11.57;3.63;;;21.00;99.90;;;;;;5033280;28;20080;-72
2022/08/03 07:40:06;;;;;;;13.15;4.13;;;21.00;99.90;;;;;;5031145;28;20042;-70
2022/08/03 07:42:32;;;;;;;13.45;3.50;;;21.10;99.90;;;;;;5033394;28;20129;-70
2022/08/03 07:44:58;;;;;;;16.40;3.28;;;21.10;99.90;;;;;;5052814;28;20131;-71
2022/08/03 07:47:27;;;;;;;14.93;3.42;;;21.30;99.90;;;;;;5023156;28;20049;-70
2022/08/03 07:49:53;;;;;;;12.68;3.72;;;21.30;99.90;;;;;;5031019;28;20120;-70
2022/08/03 07:55:05;;;;;;;12.43;3.78;;;21.30;99.90;;;;;;5032563;28;20056;-70
2022/08/03 07:57:31;;;;;;;14.48;3.75;;;21.40;99.90;;;;;;5015872;28;20441;-72
2022/08/03 07:59:57;;;;;;;15.38;3.67;;;21.50;99.90;;;;;;5032642;28;20440;-71
2022/08/03 08:02:23;;;;;;;11.70;4.35;;;21.50;99.90;;;;;;5033626;28;20046;-71
2022/08/03 08:04:48;;;;;;;14.43;4.32;;;21.70;99.90;;;;;;5046021;28;20067;-71
2022/08/03 08:07:14;;;;;;;10.77;3.38;;;21.70;99.90;;;;;;5035488;28;20095;-69
2022/08/03 08:09:40;;;;;;;13.55;4.03;;;21.70;99.90;;;;;;5052011;28;20051;-70
2022/08/03 08:12:06;;;;;;;13.00;3.97;;;21.90;99.90;;;;;;5060414;28;20064;-74
2022/08/03 08:14:33;;;;;;;12.77;4.03;;;21.80;99.90;;;;;;5036019;28;20049;-70
2022/08/03 08:16:59;;;;;;;12.68;3.72;;;21.80;99.90;;;;;;5037494;28;20115;-70
2022/08/03 08:19:24;;;;;;;12.95;4.32;;;21.80;99.90;;;;;;5040679;28;20136;-72
2022/08/03 08:21:50;;;;;;;15.82;4.93;;;21.80;99.90;;;;;;5033441;28;20043;-71
2022/08/03 08:24:15;;;;;;;17.35;4.72;;;21.80;99.90;;;;;;5030224;28;20069;-71
2022/08/03 08:26:41;;;;;;;14.77;4.13;;;21.80;99.90;;;;;;5021354;28;20529;-70
2022/08/03 08:29:07;;;;;;;13.98;4.43;;;21.90;99.90;;;;;;5048808;28;20041;-70
2022/08/03 08:31:33;;;;;;;12.13;4.47;;;21.80;99.90;;;;;;5050767;28;20059;-70
2022/08/03 08:33:58;;;;;;;11.40;5.05;;;21.80;99.90;;;;;;5050599;28;20507;-70
2022/08/03 08:36:24;;;;;;;12.13;4.68;;;22.00;99.90;;;;;;5039335;28;20401;-70
2022/08/03 08:38:50;;;;;;;16.10;4.60;;;22.10;99.90;;;;;;5047695;28;20045;-70
2022/08/03 08:41:16;;;;;;;13.77;5.13;;;22.20;99.90;;;;;;5051128;28;20033;-72
2022/08/03 08:43:41;;;;;;;20.38;5.88;;;22.30;99.90;;;;;;5038247;28;20060;-69
2022/08/03 08:46:11;;;;;;;14.00;5.45;;;22.40;99.90;;;;;;5040057;28;20044;-73
2022/08/03 08:48:41;;;;;;;12.27;5.07;;;22.40;99.90;;;;;;5022729;28;20432;-71
2022/08/03 08:51:10;;;;;;;10.45;4.90;;;22.40;99.90;;;;;;5029673;28;20133;-71
2022/08/03 08:53:37;;;;;;;18.45;6.30;;;22.40;99.90;;;;;;5029283;28;20103;-71
2022/08/03 08:56:04;;;;;;;14.45;5.75;;;22.40;99.90;;;;;;5049097;28;20049;-70
2022/08/03 08:58:36;;;;;;;14.00;6.18;;;22.50;99.90;;;;;;5032129;28;20420;-70
2022/08/03 09:01:02;;;;;;;16.17;5.57;;;22.50;99.90;;;;;;5044170;28;20128;-69
2022/08/03 09:03:28;;;;;;;15.75;5.43;;;22.60;99.90;;;;;;5040396;28;20175;-70
2022/08/03 09:05:54;;;;;;;12.77;4.85;;;22.50;99.90;;;;;;5044734;28;20507;-70
2022/08/03 09:08:21;;;;;;;15.68;4.82;;;22.70;99.90;;;;;;5012974;28;20049;-70
2022/08/03 09:10:47;;;;;;;12.70;4.57;;;22.70;99.90;;;;;;5041604;28;20120;-69
2022/08/03 09:13:13;;;;;;;14.70;4.88;;;22.90;99.90;;;;;;5037769;28;20124;-70
2022/08/03 09:15:41;;;;;;;15.02;5.00;;;22.90;99.90;;;;;;5041367;28;20493;-70
2022/08/03 09:18:08;;;;;;;13.35;5.10;;;23.10;99.90;;;;;;5020857;28;20037;-69
2022/08/03 09:20:35;;;;;;;14.63;5.10;;;23.10;99.90;;;;;;5045751;28;20045;-70
2022/08/03 09:23:07;;;;;;;19.60;5.78;;;23.10;99.90;;;;;;5038243;28;20053;-70
2022/08/03 09:25:38;;;;;;;19.23;5.18;;;23.20;99.90;;;;;;5034710;28;20052;-69
2022/08/03 09:28:14;;;;;;;;;;;23.50;99.90;;;;;;5019473;28;20069;-70
2022/08/03 09:30:44;;;;;;;11.73;5.10;;;23.50;99.90;;;;;;5035162;28;20289;-69
2022/08/03 09:33:12;;;;;;;13.10;5.53;;;23.30;99.90;;;;;;5034251;28;20049;-73
2022/08/03 09:35:48;;;;;;;15.35;5.93;;;23.20;99.90;;;;;;5050676;28;20505;-70
2022/08/03 09:38:24;;;;;;;17.35;6.40;;;23.40;99.90;;;;;;5031358;28;20073;-72
2022/08/03 09:40:50;;;;;;;14.40;5.38;;;23.40;99.90;;;;;;5048250;28;20085;-71
2022/08/03 09:43:17;;;;;;;15.50;6.13;;;23.50;99.90;;;;;;5045399;28;20100;-72
2022/08/03 09:45:43;;;;;;;14.65;5.93;;;23.50;99.90;;;;;;5049288;28;20143;-73
2022/08/03 09:48:29;;;;;;;16.27;6.22;;;23.70;99.90;;;;;;5032257;28;20037;-71
2022/08/03 09:50:57;;;;;;;18.67;5.90;;;23.70;99.90;;;;;;5033742;28;20078;-70
2022/08/03 09:53:23;;;;;;;12.65;5.80;;;23.70;99.90;;;;;;5027641;28;20496;-70
2022/08/03 09:56:00;;;;;;;16.58;6.15;;;23.70;99.90;;;;;;5028779;28;20056;-71
2022/08/03 09:58:28;;;;;;;15.43;7.13;;;23.80;99.90;;;;;;5012405;28;20540;-71
2022/08/03 10:00:55;;;;;;;15.15;6.30;;;23.70;99.90;;;;;;5030050;28;20053;-71
2022/08/03 10:03:22;;;;;;;21.02;6.10;;;23.90;99.90;;;;;;5039818;28;20044;-71
2022/08/03 10:05:48;;;;;;;11.95;5.72;;;24.10;99.90;;;;;;5049690;28;20055;-73
2022/08/03 10:08:16;;;;;;;13.85;6.72;;;24.10;99.90;;;;;;5032232;28;20041;-70
2022/08/03 10:10:43;;;;;;;15.20;5.90;;;24.30;99.90;;;;;;5049252;28;20067;-75
2022/08/03 10:13:17;;;;;;;11.43;5.68;;;24.10;99.90;;;;;;5035857;28;20081;-71
2022/08/03 10:15:42;;;;;;;16.83;6.65;;;24.20;99.90;;;;;;5039568;28;20041;-76
2022/08/03 10:18:08;;;;;;;19.02;5.70;;;24.10;99.90;;;;;;5012023;28;20045;-70
2022/08/03 10:20:39;;;;;;;21.23;6.35;;;24.00;99.90;;;;;;5035832;28;20052;-71
2022/08/03 10:23:06;;;;;;;;;;;24.30;99.90;;;;;;5045561;28;20392;-71
2022/08/03 10:25:34;;;;;;;17.48;5.97;;;24.50;99.90;;;;;;5028324;28;19974;-70
2022/08/03 10:28:03;;;;;;;13.20;6.10;;;24.40;99.90;;;;;;5028386;28;20068;-72
2022/08/03 10:30:31;;;;;;;15.13;6.40;;;24.50;99.90;;;;;;5064899;28;20041;-78
2022/08/03 10:33:15;;;;;;;13.43;5.65;;;24.50;99.90;;;;;;5049101;28;20044;-70
2022/08/03 10:35:42;;;;;;;18.40;5.40;;;24.60;99.90;;;;;;5048615;28;20060;-74
2022/08/03 10:38:17;;;;;;;16.83;5.38;;;24.80;99.90;;;;;;5033411;28;20041;-72
2022/08/03 10:40:43;;;;;;;12.95;4.90;;;24.80;99.90;;;;;;5049961;28;20391;-69
2022/08/03 10:43:17;;;;;;;17.45;5.97;;;24.80;99.90;;;;;;5014840;28;20172;-69
2022/08/03 10:45:44;;;;;;;16.98;6.20;;;24.80;99.90;;;;;;5027019;28;20056;-70
2022/08/03 10:48:12;;;;;;;14.10;6.00;;;24.80;99.90;;;;;;5032335;28;20107;-71
2022/08/03 10:50:39;;;;;;;19.02;5.63;;;24.60;99.90;;;;;;5049599;28;20056;-70
2022/08/03 10:53:06;;;;;;;17.48;5.13;;;24.80;99.90;;;;;;5042346;28;20132;-69
2022/08/03 10:58:39;;;;;;;19.05;5.78;;;25.00;99.90;;;;;;5022306;28;20415;-71
2022/08/03 11:01:10;;;;;;;17.42;6.30;;;25.00;99.90;;;;;;5040481;28;20111;-71
2022/08/03 11:03:51;;;;;;;14.07;6.60;;;25.20;99.90;;;;;;5038060;28;20037;-69
2022/08/03 11:06:26;;;;;;;25.92;7.40;;;25.10;99.90;;;;;;5030056;28;20073;-72
2022/08/03 11:09:12;;;;;;;20.90;7.97;;;25.10;99.90;;;;;;5052900;28;20026;-77
2022/08/03 11:11:43;;;;;;;20.05;8.20;;;24.90;99.90;;;;;;5045948;28;20041;-71
2022/08/03 11:14:20;;;;;;;18.05;7.72;;;25.10;99.90;;;;;;5039236;28;20048;-70
2022/08/03 11:16:48;;;;;;;17.65;7.05;;;25.00;99.90;;;;;;5032971;28;20052;-70
2022/08/03 11:19:18;;;;;;;21.52;7.50;;;25.10;99.90;;;;;;5051837;28;20085;-74
2022/08/03 11:21:50;;;;;;;22.85;8.10;;;25.10;99.90;;;;;;5049181;28;20084;-74
2022/08/03 11:24:46;;;;;;;21.65;7.88;;;25.00;99.90;;;;;;5041028;28;20115;-72
2022/08/03 11:27:21;;;;;;;25.90;7.60;;;24.90;99.90;;;;;;5034964;28;20048;-70
2022/08/03 11:30:08;;;;;;;24.58;8.95;;;24.80;99.90;;;;;;5049863;28;20053;-70
2022/08/03 11:32:37;;;;;;;19.02;8.27;;;24.90;99.90;;;;;;5030924;28;20132;-75
2022/08/03 11:35:08;;;;;;;24.15;7.30;;;25.10;99.90;;;;;;5034339;28;20102;-69
2022/08/03 11:37:35;;;;;;;20.48;6.38;;;25.20;99.90;;;;;;5023297;28;20502;-71
2022/08/03 11:40:00;;;;;;;22.95;7.53;;;25.30;99.90;;;;;;5037958;28;20049;-70
2022/08/03 11:42:27;;;;;;;22.40;6.90;;;25.10;99.90;;;;;;5039257;28;20712;-72
2022/08/03 11:44:59;;;;;;;24.35;7.13;;;25.20;99.90;;;;;;5042894;28;20542;-70
2022/08/03 11:47:26;;;;;;;18.70;6.53;;;25.40;99.90;;;;;;5027004;28;20077;-70
2022/08/03 11:49:58;;;;;;;23.42;6.38;;;25.50;99.90;;;;;;5041225;28;20095;-74
2022/08/03 11:52:25;;;;;;;21.15;6.70;;;25.60;99.90;;;;;;5040115;28;20049;-72
2022/08/03 11:54:52;;;;;;;20.05;6.45;;;25.50;99.90;;;;;;5040508;28;20037;-72
2022/08/03 11:57:32;;;;;;;23.60;7.85;;;25.60;99.90;;;;;;5023658;28;20037;-72
2022/08/03 11:59:58;;;;;;;19.17;6.20;;;25.60;99.90;;;;;;5040896;28;20052;-70
2022/08/03 12:02:24;;;;;;;15.82;5.63;;;25.40;99.90;;;;;;5036480;28;20057;-72
2022/08/03 12:04:57;;;;;;;15.20;5.97;;;25.60;99.90;;;;;;5035100;28;20081;-68
2022/08/03 12:07:23;;;;;;;15.43;5.82;;;25.70;99.90;;;;;;5014759;28;20053;-70
2022/08/03 12:10:14;;;;;;;22.38;6.50;;;25.80;99.90;;;;;;5031603;28;20073;-72
2022/08/03 12:12:41;;;;;;;24.08;7.25;;;26.00;99.90;;;;;;5036377;28;20051;-71
2022/08/03 12:15:08;;;;;;;23.50;7.35;;;25.70;99.90;;;;;;5043951;28;20048;-73
2022/08/03 12:17:35;;;;;;;18.80;5.95;;;25.70;99.90;;;;;;5022111;28;20041;-74
2022/08/03 12:20:02;;;;;;;20.15;6.07;;;25.70;99.90;;;;;;5040935;28;20054;-70
2022/08/03 12:22:46;;;;;;;20.33;6.45;;;25.90;99.90;;;;;;5049514;28;20041;-72
2022/08/03 12:25:23;;;;;;;30.02;6.72;;;26.00;99.90;;;;;;5043388;28;20053;-70
2022/08/03 12:27:50;;;;;;;17.92;6.30;;;26.20;99.90;;;;;;5020440;28;20037;-71
2022/08/03 12:30:17;;;;;;;20.30;7.60;;;26.20;99.90;;;;;;5044967;28;20612;-71
2022/08/03 12:32:43;;;;;;;18.67;7.28;;;26.20;99.90;;;;;;5040439;28;20087;-75
2022/08/03 12:35:09;;;;;;;27.08;7.20;;;26.20;99.90;;;;;;5036945;28;20041;-71
2022/08/03 12:37:35;;;;;;;21.02;6.88;;;26.00;99.90;;;;;;5023988;28;20060;-77
2022/08/03 12:40:05;;;;;;;15.50;5.72;;;25.90;99.90;;;;;;5036615;28;20140;-72
2022/08/03 12:42:36;;;;;;;16.95;6.43;;;25.90;99.90;;;;;;5052329;28;20068;-71
2022/08/03 12:45:17;;;;;;;;;;;26.10;99.90;;;;;;5042291;28;20049;-72
2022/08/03 12:48:10;;;;;;;;;;;26.00;99.90;;;;;;5020353;28;19956;-73
2022/08/03 12:50:36;;;;;;;18.92;5.70;;;25.90;99.90;;;;;;5043495;28;19979;-72
2022/08/03 12:53:05;;;;;;;27.17;5.57;;;25.90;99.90;;;;;;5034760;28;20500;-71
2022/08/03 12:55:34;;;;;;;17.08;5.57;;;25.90;99.90;;;;;;5036593;28;20044;-71
2022/08/03 12:58:01;;;;;;;21.30;6.82;;;25.80;99.90;;;;;;5019444;28;20527;-73
2022/08/03 13:00:29;;;;;;;21.35;6.25;;;26.00;99.90;;;;;;5033657;28;20058;-78